Time;durP1;ratioP1;P1;durP2;ratioP2;P2;SDS_P1;SDS_P2;PMS_P1;PMS_P2;Temp;Humidity;BMP_temperature;BMP_pressure;BME280_temperature;BME280_humidity;BME280_pressure;Samples;Min_cycle;Max_cycle;Signal;HPM_P1;HPM_P2
2021/12/02 00:01:44;;;;;;;0.10;0.10;;;5.60;99.90;;;;;;5044196;28;20667;-67
2021/12/02 00:04:11;;;;;;;0.10;0.10;;;5.60;99.90;;;;;;5044788;28;20609;-67
2021/12/02 00:06:39;;;;;;;0.10;0.10;;;5.50;99.90;;;;;;5044076;28;20665;-68
2021/12/02 00:09:07;;;;;;;0.10;0.10;;;5.50;99.90;;;;;;5043718;28;20661;-67
2021/12/02 00:11:34;;;;;;;0.10;0.10;;;5.50;99.90;;;;;;5044548;28;20616;-67
2021/12/02 00:14:07;;;;;;;0.10;0.10;;;5.50;99.90;;;;;;5041910;28;20621;-67
2021/12/02 00:16:38;;;;;;;0.10;0.10;;;5.40;99.90;;;;;;5044430;28;20719;-67
2021/12/02 00:21:53;;;;;;;0.10;0.10;;;5.40;99.90;;;;;;5040749;28;20683;-66
2021/12/02 00:24:24;;;;;;;0.10;0.10;;;5.40;99.90;;;;;;5039437;28;20610;-68
2021/12/02 00:41:56;;;;;;;0.10;0.10;;;5.30;99.90;;;;;;5045921;28;20876;-68
2021/12/02 00:44:23;;;;;;;0.10;0.10;;;5.30;99.90;;;;;;5042049;28;20734;-67
2021/12/02 00:46:51;;;;;;;0.10;0.10;;;5.30;99.90;;;;;;5043220;28;20661;-68
2021/12/02 00:49:20;;;;;;;0.10;0.10;;;5.30;99.90;;;;;;5043707;28;20658;-68
2021/12/02 00:51:53;;;;;;;0.10;0.10;;;5.30;99.90;;;;;;5045418;28;20609;-67
2021/12/02 00:54:24;;;;;;;0.10;0.10;;;5.30;99.90;;;;;;5041755;28;20722;-67
2021/12/02 00:56:52;;;;;;;0.10;0.10;;;5.20;99.90;;;;;;5044001;28;20681;-68
2021/12/02 00:59:22;;;;;;;0.10;0.10;;;5.20;99.90;;;;;;5043143;28;20644;-68
2021/12/02 01:01:50;;;;;;;0.10;0.10;;;5.20;99.90;;;;;;5045045;28;20713;-68
2021/12/02 01:04:22;;;;;;;0.10;0.10;;;5.20;99.90;;;;;;5038654;28;21249;-67
2021/12/02 01:06:50;;;;;;;0.10;0.10;;;5.20;99.90;;;;;;5040744;28;20657;-68
2021/12/02 01:09:17;;;;;;;0.10;0.10;;;5.30;99.90;;;;;;5046665;28;20649;-70
2021/12/02 01:11:44;;;;;;;0.10;0.10;;;5.30;99.90;;;;;;5047883;28;20625;-68
2021/12/02 01:14:11;;;;;;;0.10;0.10;;;5.30;99.90;;;;;;5047192;28;20625;-67
2021/12/02 01:16:39;;;;;;;0.10;0.10;;;5.30;99.90;;;;;;5047650;28;20755;-68
2021/12/02 01:19:08;;;;;;;0.10;0.10;;;5.20;99.90;;;;;;5046608;28;20742;-66
2021/12/02 01:21:38;;;;;;;0.10;0.10;;;5.10;99.90;;;;;;5051349;28;20633;-66
2021/12/02 01:24:07;;;;;;;0.10;0.10;;;5.00;99.90;;;;;;5045944;28;20625;-68
2021/12/02 01:26:35;;;;;;;0.10;0.10;;;5.00;99.90;;;;;;5045494;28;20657;-67
2021/12/02 01:29:04;;;;;;;0.10;0.10;;;4.90;99.90;;;;;;5046806;28;20670;-68
2021/12/02 01:31:32;;;;;;;0.10;0.10;;;4.80;99.90;;;;;;5046484;28;20621;-66
2021/12/02 01:34:05;;;;;;;0.10;0.10;;;4.80;99.90;;;;;;5046293;28;20609;-66
2021/12/02 01:36:34;;;;;;;0.10;0.10;;;4.80;99.90;;;;;;5047319;28;20697;-68
2021/12/02 01:39:03;;;;;;;0.10;0.10;;;4.80;99.90;;;;;;5047880;28;20620;-67
2021/12/02 01:41:37;;;;;;;0.10;0.10;;;4.80;99.90;;;;;;5045577;28;20625;-65
2021/12/02 01:44:11;;;;;;;0.10;0.10;;;4.90;99.90;;;;;;5047120;28;20629;-65
2021/12/02 01:46:38;;;;;;;0.10;0.10;;;4.90;99.90;;;;;;5041560;28;20693;-66
2021/12/02 01:49:10;;;;;;;0.10;0.10;;;5.00;99.90;;;;;;5047653;28;20664;-68
2021/12/02 01:51:40;;;;;;;0.10;0.10;;;5.00;99.90;;;;;;5047193;28;21037;-66
2021/12/02 01:54:09;;;;;;;0.10;0.10;;;5.00;99.90;;;;;;5042087;28;20748;-66
2021/12/02 01:56:43;;;;;;;0.10;0.10;;;5.00;99.90;;;;;;5046908;28;20652;-67
2021/12/02 01:59:12;;;;;;;0.10;0.10;;;5.00;99.90;;;;;;5046958;28;20626;-68
2021/12/02 02:01:42;;;;;;;0.10;0.10;;;5.00;99.90;;;;;;5046841;28;20737;-67
2021/12/02 02:04:12;;;;;;;0.00;0.00;;;5.00;99.90;;;;;;5046883;28;20618;-67
2021/12/02 02:06:41;;;;;;;0.10;0.10;;;5.00;99.90;;;;;;5047476;28;20649;-67
2021/12/02 02:09:09;;;;;;;0.10;0.10;;;5.00;99.90;;;;;;5049214;28;20657;-67
2021/12/02 02:11:36;;;;;;;0.10;0.10;;;5.00;99.90;;;;;;5046614;28;20624;-67
2021/12/02 02:14:06;;;;;;;0.10;0.10;;;4.90;99.90;;;;;;5047963;28;20609;-66
2021/12/02 02:16:34;;;;;;;0.10;0.10;;;4.90;99.90;;;;;;5047755;28;20660;-68
2021/12/02 02:19:01;;;;;;;0.10;0.10;;;4.80;99.90;;;;;;5045942;28;20648;-67
2021/12/02 02:21:31;;;;;;;0.10;0.10;;;4.70;99.90;;;;;;5045791;28;20630;-67
2021/12/02 02:24:00;;;;;;;0.10;0.10;;;4.60;99.90;;;;;;5043787;28;20636;-66
2021/12/02 02:26:31;;;;;;;0.10;0.10;;;4.50;99.90;;;;;;5046381;28;20664;-67
2021/12/02 02:28:59;;;;;;;0.10;0.10;;;4.50;99.90;;;;;;5046274;28;20653;-66
2021/12/02 02:31:29;;;;;;;0.10;0.10;;;4.40;99.90;;;;;;5048021;28;20613;-66
2021/12/02 02:33:56;;;;;;;0.20;0.20;;;4.40;99.90;;;;;;5046271;28;21067;-67
2021/12/02 02:36:26;;;;;;;0.10;0.10;;;4.40;99.90;;;;;;5044897;28;20665;-66
2021/12/02 02:38:56;;;;;;;0.10;0.10;;;4.40;99.90;;;;;;5046450;28;20618;-66
2021/12/02 02:41:25;;;;;;;0.20;0.20;;;4.40;99.90;;;;;;5043367;28;20691;-65
2021/12/02 02:43:55;;;;;;;0.10;0.10;;;4.40;99.90;;;;;;5061579;28;20650;-67
2021/12/02 02:46:24;;;;;;;0.10;0.10;;;4.40;99.90;;;;;;5044578;28;20657;-68
2021/12/02 02:48:52;;;;;;;0.10;0.10;;;4.40;99.90;;;;;;5046175;28;20677;-68
2021/12/02 02:51:20;;;;;;;0.10;0.10;;;4.40;99.90;;;;;;5045048;28;20621;-68
2021/12/02 02:53:50;;;;;;;0.10;0.10;;;4.40;99.90;;;;;;5045949;28;20657;-67
2021/12/02 02:56:19;;;;;;;0.10;0.10;;;4.40;99.90;;;;;;5045970;28;20617;-67
2021/12/02 02:58:57;;;;;;;0.10;0.10;;;4.40;99.90;;;;;;5044105;28;20617;-67
2021/12/02 03:01:34;;;;;;;0.10;0.10;;;4.40;99.90;;;;;;5041534;28;20631;-67
2021/12/02 03:04:09;;;;;;;0.10;0.10;;;4.40;99.90;;;;;;5045430;28;20637;-67
2021/12/02 03:06:45;;;;;;;0.10;0.10;;;4.40;99.90;;;;;;5045511;28;20672;-66
2021/12/02 03:09:19;;;;;;;0.10;0.10;;;4.40;99.90;;;;;;5043994;28;20697;-68
2021/12/02 03:11:50;;;;;;;0.10;0.10;;;4.40;99.90;;;;;;5043962;28;20649;-68
2021/12/02 03:14:23;;;;;;;0.17;0.17;;;4.40;99.90;;;;;;5046172;28;20602;-67
2021/12/02 03:16:49;;;;;;;0.20;0.20;;;4.40;99.90;;;;;;5045345;28;20798;-67
2021/12/02 03:19:23;;;;;;;0.10;0.10;;;4.40;99.90;;;;;;5045584;28;20737;-67
2021/12/02 03:21:50;;;;;;;0.10;0.10;;;4.30;99.90;;;;;;5047020;28;20227;-67
2021/12/02 03:24:17;;;;;;;0.10;0.10;;;4.30;99.90;;;;;;5045054;28;20632;-66
2021/12/02 03:26:44;;;;;;;0.10;0.10;;;4.30;99.90;;;;;;5046444;28;20649;-67
2021/12/02 03:29:13;;;;;;;0.10;0.10;;;4.30;99.90;;;;;;5045497;28;20671;-66
2021/12/02 03:31:39;;;;;;;0.10;0.10;;;4.30;99.90;;;;;;5047205;28;20691;-67
2021/12/02 03:34:07;;;;;;;0.20;0.20;;;4.30;99.90;;;;;;5045636;28;20625;-67
2021/12/02 03:36:35;;;;;;;0.20;0.20;;;4.30;99.90;;;;;;5044437;28;20654;-66
2021/12/02 03:39:02;;;;;;;0.10;0.10;;;4.40;99.90;;;;;;5046707;28;20642;-67
2021/12/02 03:41:29;;;;;;;0.13;0.13;;;4.40;99.90;;;;;;5044777;28;20625;-66
2021/12/02 03:43:56;;;;;;;0.20;0.20;;;4.30;99.90;;;;;;5043968;28;20999;-67
2021/12/02 03:46:25;;;;;;;0.10;0.10;;;4.30;99.90;;;;;;5045065;28;20640;-66
2021/12/02 03:48:53;;;;;;;0.10;0.10;;;4.30;99.90;;;;;;5044070;28;21022;-67
2021/12/02 03:51:21;;;;;;;0.10;0.10;;;4.30;99.90;;;;;;5044245;28;20637;-66
2021/12/02 03:53:50;;;;;;;0.10;0.10;;;4.30;99.90;;;;;;5046172;28;20598;-66
2021/12/02 03:56:17;;;;;;;0.10;0.10;;;4.30;99.90;;;;;;5044632;28;20625;-66
2021/12/02 03:58:46;;;;;;;0.10;0.10;;;4.30;99.90;;;;;;5043899;28;20657;-67
2021/12/02 04:01:16;;;;;;;0.20;0.20;;;4.30;99.90;;;;;;5043035;28;20747;-67
2021/12/02 04:03:46;;;;;;;0.10;0.10;;;4.40;99.90;;;;;;5047846;28;20613;-68
2021/12/02 04:06:14;;;;;;;0.10;0.10;;;4.40;99.90;;;;;;5045843;28;20676;-67
2021/12/02 04:08:45;;;;;;;0.10;0.10;;;4.40;99.90;;;;;;5045993;28;20654;-66
2021/12/02 04:11:22;;;;;;;0.10;0.10;;;4.50;99.90;;;;;;5045567;28;20659;-67
2021/12/02 04:14:03;;;;;;;0.10;0.10;;;4.50;99.90;;;;;;5045243;28;20633;-66
2021/12/02 04:16:34;;;;;;;0.10;0.10;;;4.50;99.90;;;;;;5043552;28;20755;-67
2021/12/02 04:19:03;;;;;;;0.10;0.10;;;4.50;99.90;;;;;;5044648;28;20640;-65
2021/12/02 04:21:30;;;;;;;0.10;0.10;;;4.60;99.90;;;;;;5044027;28;20625;-67
2021/12/02 04:23:57;;;;;;;0.10;0.10;;;4.50;99.90;;;;;;5043537;28;20625;-66
2021/12/02 04:26:24;;;;;;;0.10;0.10;;;4.50;99.90;;;;;;5043916;28;20711;-67
2021/12/02 04:28:52;;;;;;;0.17;0.17;;;4.50;99.90;;;;;;5046015;28;20657;-66
2021/12/02 04:31:18;;;;;;;0.10;0.10;;;4.50;99.90;;;;;;5044468;28;21268;-67
2021/12/02 04:33:45;;;;;;;0.10;0.10;;;4.50;99.90;;;;;;5043994;28;20633;-68
2021/12/02 04:36:14;;;;;;;0.10;0.10;;;4.50;99.90;;;;;;5043374;28;20672;-67
2021/12/02 04:38:41;;;;;;;0.10;0.10;;;4.50;99.90;;;;;;5044062;28;20626;-67
2021/12/02 04:41:07;;;;;;;0.10;0.10;;;4.50;99.90;;;;;;5043985;28;20661;-67
2021/12/02 04:43:34;;;;;;;0.10;0.10;;;4.50;99.90;;;;;;5044243;28;20640;-66
2021/12/02 04:46:01;;;;;;;0.10;0.10;;;4.50;99.90;;;;;;5048080;28;20633;-67
2021/12/02 04:48:28;;;;;;;0.10;0.10;;;4.50;99.90;;;;;;5047802;28;20618;-65
2021/12/02 04:50:55;;;;;;;0.10;0.10;;;4.50;99.90;;;;;;5047929;28;20629;-67
2021/12/02 04:53:23;;;;;;;0.10;0.10;;;4.50;99.90;;;;;;5048090;28;20732;-67
2021/12/02 04:55:50;;;;;;;0.10;0.10;;;4.40;99.90;;;;;;5048197;28;20621;-66
2021/12/02 04:58:17;;;;;;;0.10;0.10;;;4.40;99.90;;;;;;5048378;28;21223;-67
2021/12/02 05:00:44;;;;;;;0.10;0.10;;;4.40;99.90;;;;;;5045498;28;20699;-67
2021/12/02 05:03:11;;;;;;;0.20;0.20;;;4.40;99.90;;;;;;5047326;28;21022;-66
2021/12/02 05:05:38;;;;;;;0.20;0.20;;;4.40;99.90;;;;;;5043855;28;20732;-67
2021/12/02 05:08:06;;;;;;;0.20;0.20;;;4.40;99.90;;;;;;5049290;28;20755;-67
2021/12/02 05:10:34;;;;;;;0.10;0.10;;;4.40;99.90;;;;;;5048964;28;20696;-66
2021/12/02 05:13:01;;;;;;;0.10;0.10;;;4.30;99.90;;;;;;5046136;28;21329;-67
2021/12/02 05:15:28;;;;;;;0.10;0.10;;;4.20;99.90;;;;;;5043145;28;20691;-67
2021/12/02 05:17:55;;;;;;;0.10;0.10;;;4.20;99.90;;;;;;5046804;28;21246;-67
2021/12/02 05:20:22;;;;;;;0.10;0.10;;;4.20;99.90;;;;;;5047493;28;20633;-65
2021/12/02 05:22:49;;;;;;;0.10;0.10;;;4.10;99.90;;;;;;5047324;28;20634;-65
2021/12/02 05:25:16;;;;;;;0.10;0.10;;;4.00;99.90;;;;;;5046937;28;20625;-66
2021/12/02 05:27:44;;;;;;;0.10;0.10;;;3.90;99.90;;;;;;5048160;28;20649;-66
2021/12/02 05:30:11;;;;;;;0.10;0.10;;;3.70;99.90;;;;;;5046543;28;20658;-68
2021/12/02 05:32:39;;;;;;;0.10;0.10;;;3.60;99.90;;;;;;5047167;28;20712;-68
2021/12/02 05:35:07;;;;;;;0.10;0.10;;;3.50;99.90;;;;;;5046588;28;20626;-68
2021/12/02 05:37:33;;;;;;;0.10;0.10;;;3.40;99.90;;;;;;5048707;28;20646;-67
2021/12/02 05:40:01;;;;;;;0.10;0.10;;;3.30;99.90;;;;;;5046863;28;20713;-68
2021/12/02 05:42:28;;;;;;;0.10;0.10;;;3.30;99.90;;;;;;5055164;28;20638;-68
2021/12/02 05:44:57;;;;;;;0.20;0.20;;;3.20;99.90;;;;;;5056248;28;20660;-68
2021/12/02 05:47:24;;;;;;;0.10;0.10;;;3.20;99.90;;;;;;5056090;28;20657;-68
2021/12/02 05:49:52;;;;;;;0.10;0.10;;;3.20;99.90;;;;;;5054466;28;20701;-68
2021/12/02 05:52:22;;;;;;;0.10;0.10;;;3.20;99.90;;;;;;5047487;28;20629;-68
2021/12/02 05:54:54;;;;;;;0.10;0.10;;;3.20;99.90;;;;;;5061796;28;20630;-67
2021/12/02 05:57:21;;;;;;;0.10;0.10;;;3.20;99.90;;;;;;5057377;28;21107;-67
2021/12/02 05:59:49;;;;;;;0.10;0.10;;;3.20;99.90;;;;;;5050499;28;20699;-65
2021/12/02 06:02:19;;;;;;;0.20;0.20;;;3.20;99.90;;;;;;5055150;28;20712;-65
2021/12/02 06:04:50;;;;;;;0.10;0.10;;;3.20;99.90;;;;;;5054195;28;20621;-68
2021/12/02 06:07:19;;;;;;;0.20;0.20;;;3.20;99.90;;;;;;5054886;28;20660;-67
2021/12/02 06:09:46;;;;;;;0.10;0.10;;;3.30;99.90;;;;;;5052400;28;20746;-66
2021/12/02 06:12:16;;;;;;;0.10;0.10;;;3.30;99.90;;;;;;5049857;28;20637;-67
2021/12/02 06:14:44;;;;;;;0.10;0.10;;;3.30;99.90;;;;;;5050311;28;20703;-68
2021/12/02 06:17:12;;;;;;;0.20;0.20;;;3.30;99.90;;;;;;5049220;28;20657;-66
2021/12/02 06:19:44;;;;;;;0.10;0.10;;;3.30;99.90;;;;;;5050964;28;20641;-66
2021/12/02 06:22:13;;;;;;;0.10;0.10;;;3.30;99.90;;;;;;5053283;28;20633;-66
2021/12/02 06:24:47;;;;;;;0.13;0.13;;;3.30;99.90;;;;;;5051373;28;20621;-67
2021/12/02 06:27:15;;;;;;;0.10;0.10;;;3.30;99.90;;;;;;5049213;28;20780;-64
2021/12/02 06:29:43;;;;;;;0.10;0.10;;;3.30;99.90;;;;;;5049770;28;20715;-66
2021/12/02 06:32:11;;;;;;;0.10;0.10;;;3.30;99.90;;;;;;5047863;28;20712;-66
2021/12/02 06:34:43;;;;;;;0.10;0.10;;;3.30;99.90;;;;;;5051024;28;20636;-66
2021/12/02 06:37:10;;;;;;;0.10;0.10;;;3.30;99.90;;;;;;5053081;28;20661;-67
2021/12/02 06:39:37;;;;;;;0.10;0.10;;;3.30;99.90;;;;;;5052560;28;20634;-67
2021/12/02 06:42:05;;;;;;;0.20;0.20;;;3.20;99.90;;;;;;5058997;28;20618;-66
2021/12/02 06:44:33;;;;;;;0.10;0.10;;;3.20;99.90;;;;;;5050905;28;20638;-67
2021/12/02 06:47:01;;;;;;;0.20;0.20;;;3.10;99.90;;;;;;5053488;28;20664;-67
2021/12/02 06:49:30;;;;;;;0.10;0.10;;;3.10;99.90;;;;;;5053015;28;20675;-66
2021/12/02 06:51:59;;;;;;;0.10;0.10;;;3.10;99.90;;;;;;5052215;28;20708;-67
2021/12/02 06:54:27;;;;;;;0.10;0.10;;;3.10;99.90;;;;;;5051531;28;20684;-66
2021/12/02 06:56:56;;;;;;;0.10;0.10;;;3.10;99.90;;;;;;5051399;28;20874;-66
2021/12/02 06:59:23;;;;;;;0.10;0.10;;;3.10;99.90;;;;;;5051478;28;20614;-65
2021/12/02 07:01:50;;;;;;;0.20;0.20;;;3.20;99.90;;;;;;5052004;28;20637;-66
2021/12/02 07:04:43;;;;;;;0.17;0.17;;;3.20;99.90;;;;;;5054865;28;20597;-65
2021/12/02 07:07:12;;;;;;;0.20;0.20;;;3.20;99.90;;;;;;5050116;28;20656;-66
2021/12/02 07:09:41;;;;;;;0.20;0.20;;;3.30;99.90;;;;;;5050801;28;20653;-66
2021/12/02 07:12:09;;;;;;;0.10;0.10;;;3.30;99.90;;;;;;5048863;28;20625;-66
2021/12/02 07:14:36;;;;;;;0.10;0.10;;;3.30;99.90;;;;;;5050129;28;20638;-65
2021/12/02 07:17:04;;;;;;;0.10;0.10;;;3.40;99.90;;;;;;5051047;28;20663;-66
2021/12/02 07:19:32;;;;;;;0.10;0.10;;;3.40;99.90;;;;;;5047472;28;20638;-66
2021/12/02 07:22:00;;;;;;;0.10;0.10;;;3.40;99.90;;;;;;5049717;28;20618;-66
2021/12/02 07:24:29;;;;;;;0.10;0.10;;;3.40;99.90;;;;;;5049153;28;20618;-67
2021/12/02 07:26:57;;;;;;;0.10;0.10;;;3.40;99.90;;;;;;5051603;28;20764;-66
2021/12/02 07:29:24;;;;;;;0.10;0.10;;;3.30;99.90;;;;;;5049242;28;20945;-66
2021/12/02 07:31:53;;;;;;;0.10;0.10;;;3.30;99.90;;;;;;5052225;28;20691;-66
2021/12/02 07:34:25;;;;;;;0.10;0.10;;;3.30;99.90;;;;;;5046095;28;20655;-66
2021/12/02 07:36:55;;;;;;;0.10;0.10;;;3.30;99.90;;;;;;5050472;28;20674;-66
2021/12/02 07:39:24;;;;;;;0.10;0.10;;;3.30;99.90;;;;;;5050482;28;20630;-68
2021/12/02 07:41:53;;;;;;;0.10;0.10;;;3.30;99.90;;;;;;5047064;28;20619;-65
2021/12/02 07:44:20;;;;;;;0.10;0.10;;;3.40;99.90;;;;;;5046591;28;20715;-66
2021/12/02 07:46:47;;;;;;;0.10;0.10;;;3.40;99.90;;;;;;5049391;28;20672;-66
2021/12/02 07:49:15;;;;;;;0.10;0.10;;;3.40;99.90;;;;;;5050975;28;20672;-66
2021/12/02 07:51:45;;;;;;;0.10;0.10;;;3.40;99.90;;;;;;5050753;28;20625;-67
2021/12/02 07:54:13;;;;;;;0.10;0.10;;;3.50;99.90;;;;;;5045834;28;20729;-67
2021/12/02 07:56:42;;;;;;;0.10;0.10;;;3.50;99.90;;;;;;5051429;28;20760;-67
2021/12/02 07:59:14;;;;;;;0.20;0.20;;;3.50;99.90;;;;;;5051420;28;20699;-66
2021/12/02 08:01:43;;;;;;;0.17;0.17;;;3.60;99.90;;;;;;5050394;28;20728;-67
2021/12/02 08:04:09;;;;;;;0.10;0.10;;;3.60;99.90;;;;;;5050853;28;21183;-66
2021/12/02 08:06:37;;;;;;;0.10;0.10;;;3.60;99.90;;;;;;5047453;28;20657;-68
2021/12/02 08:09:12;;;;;;;0.10;0.10;;;3.60;99.90;;;;;;5050542;28;20617;-66
2021/12/02 08:11:39;;;;;;;0.10;0.10;;;3.60;99.90;;;;;;5049856;28;21095;-67
2021/12/02 08:14:11;;;;;;;0.10;0.10;;;3.60;99.90;;;;;;5047938;28;20626;-67
2021/12/02 08:16:40;;;;;;;0.10;0.10;;;3.70;99.90;;;;;;5049567;28;20720;-67
2021/12/02 08:19:08;;;;;;;0.10;0.10;;;3.70;99.90;;;;;;5048143;28;20632;-67
2021/12/02 08:21:36;;;;;;;0.10;0.10;;;3.80;99.90;;;;;;5046439;28;20684;-66
2021/12/02 08:24:06;;;;;;;0.10;0.10;;;3.90;99.90;;;;;;5046969;28;20624;-67
2021/12/02 08:26:34;;;;;;;0.10;0.10;;;4.10;99.90;;;;;;5046810;28;20692;-65
2021/12/02 08:29:03;;;;;;;0.10;0.10;;;4.10;99.90;;;;;;5048781;28;20626;-66
2021/12/02 08:31:30;;;;;;;0.10;0.10;;;4.20;99.90;;;;;;5046271;28;20657;-67
2021/12/02 08:33:59;;;;;;;0.10;0.10;;;4.30;99.90;;;;;;5047000;28;20622;-67
2021/12/02 08:36:30;;;;;;;0.10;0.10;;;4.40;99.90;;;;;;5049075;28;20661;-67
2021/12/02 08:38:59;;;;;;;0.10;0.10;;;4.50;99.90;;;;;;5047882;28;20641;-65
2021/12/02 08:41:27;;;;;;;0.10;0.10;;;4.50;99.90;;;;;;5046679;28;20630;-67
2021/12/02 08:43:55;;;;;;;0.10;0.10;;;4.60;99.90;;;;;;5047371;28;20654;-66
2021/12/02 08:46:27;;;;;;;0.10;0.10;;;4.60;99.90;;;;;;5049581;28;20650;-67
2021/12/02 08:48:55;;;;;;;0.10;0.10;;;4.60;99.90;;;;;;5049665;28;20617;-67
2021/12/02 08:51:24;;;;;;;0.20;0.20;;;4.70;99.90;;;;;;5048124;28;20653;-66
2021/12/02 08:53:54;;;;;;;0.10;0.10;;;4.70;99.90;;;;;;5043396;28;20625;-66
2021/12/02 08:56:24;;;;;;;0.10;0.10;;;4.80;99.90;;;;;;5046277;28;20614;-66
2021/12/02 08:58:53;;;;;;;0.10;0.10;;;4.90;99.90;;;;;;5050789;28;20629;-67
2021/12/02 09:01:20;;;;;;;0.10;0.10;;;4.90;99.90;;;;;;5047828;28;20741;-66
2021/12/02 09:03:48;;;;;;;0.10;0.10;;;5.00;99.90;;;;;;5048483;28;20654;-67
2021/12/02 09:06:21;;;;;;;0.10;0.10;;;5.00;99.90;;;;;;5048841;28;20621;-67
2021/12/02 09:08:50;;;;;;;0.10;0.10;;;5.00;99.90;;;;;;5043962;28;20634;-66
2021/12/02 09:11:18;;;;;;;0.10;0.10;;;5.10;99.90;;;;;;5049384;28;20649;-66
2021/12/02 09:13:48;;;;;;;0.10;0.10;;;5.10;99.90;;;;;;5045438;28;20629;-65
2021/12/02 09:16:17;;;;;;;0.13;0.13;;;5.10;99.90;;;;;;5050229;28;20656;-67
2021/12/02 09:18:45;;;;;;;0.10;0.10;;;5.10;99.90;;;;;;5051769;28;20630;-67
2021/12/02 09:21:12;;;;;;;0.10;0.10;;;5.10;99.90;;;;;;5049810;28;20621;-66
2021/12/02 09:23:39;;;;;;;0.10;0.10;;;5.20;99.90;;;;;;5049966;28;20648;-65
2021/12/02 09:26:09;;;;;;;0.10;0.10;;;5.20;99.90;;;;;;5051459;28;20605;-65
2021/12/02 09:28:36;;;;;;;0.10;0.10;;;5.30;99.90;;;;;;5048738;28;20625;-66
2021/12/02 09:31:04;;;;;;;0.10;0.10;;;5.30;99.90;;;;;;5053286;28;21231;-65
2021/12/02 09:33:33;;;;;;;0.10;0.10;;;5.30;99.90;;;;;;5055758;28;20602;-67
2021/12/02 09:36:02;;;;;;;0.10;0.10;;;5.30;99.90;;;;;;5053789;28;20630;-66
2021/12/02 09:38:29;;;;;;;0.10;0.10;;;5.30;99.90;;;;;;5055228;28;20687;-67
2021/12/02 09:40:57;;;;;;;0.10;0.10;;;5.30;99.90;;;;;;5054965;28;21234;-67
2021/12/02 09:43:27;;;;;;;0.10;0.10;;;5.30;99.90;;;;;;5054308;28;20621;-66
2021/12/02 09:45:55;;;;;;;0.10;0.10;;;5.40;99.90;;;;;;5052989;28;20665;-65
2021/12/02 09:48:22;;;;;;;0.10;0.10;;;5.40;99.90;;;;;;5051105;28;20676;-67
2021/12/02 09:50:54;;;;;;;0.10;0.10;;;5.40;99.90;;;;;;5054512;28;20753;-66
2021/12/02 09:53:23;;;;;;;0.10;0.10;;;5.40;99.90;;;;;;5054673;28;20622;-67
2021/12/02 09:55:55;;;;;;;0.10;0.10;;;5.40;99.90;;;;;;5055957;28;20696;-66
2021/12/02 09:58:25;;;;;;;0.10;0.10;;;5.30;99.90;;;;;;5049884;28;20739;-67
2021/12/02 10:00:59;;;;;;;0.10;0.10;;;5.30;99.90;;;;;;5063001;28;20649;-67
2021/12/02 10:03:31;;;;;;;0.10;0.10;;;5.30;99.90;;;;;;5054380;28;20652;-67
2021/12/02 10:06:07;;;;;;;0.10;0.10;;;5.30;99.90;;;;;;5053991;28;20744;-67
2021/12/02 10:08:45;;;;;;;0.10;0.10;;;5.30;99.90;;;;;;5056130;28;20636;-67
2021/12/02 10:11:16;;;;;;;0.10;0.10;;;5.40;99.90;;;;;;5055411;28;20660;-67
2021/12/02 10:13:47;;;;;;;0.10;0.10;;;5.30;99.90;;;;;;5054073;28;20620;-67
2021/12/02 10:16:27;;;;;;;0.10;0.10;;;5.40;99.90;;;;;;5058717;28;20610;-66
2021/12/02 10:19:05;;;;;;;0.10;0.10;;;5.40;99.90;;;;;;5055899;28;20636;-67
2021/12/02 10:21:39;;;;;;;0.10;0.10;;;5.40;99.90;;;;;;5063395;28;20700;-65
2021/12/02 10:24:10;;;;;;;0.10;0.10;;;5.40;99.90;;;;;;5059028;28;20667;-67
2021/12/02 10:26:42;;;;;;;0.10;0.10;;;5.50;99.90;;;;;;5058183;28;20704;-67
2021/12/02 10:29:16;;;;;;;0.10;0.10;;;5.60;99.90;;;;;;5060433;28;20682;-66
2021/12/02 10:31:48;;;;;;;0.10;0.10;;;5.60;99.90;;;;;;5060912;28;20657;-65
2021/12/02 10:34:20;;;;;;;0.10;0.10;;;5.80;99.90;;;;;;5061759;28;20614;-66
2021/12/02 10:36:58;;;;;;;0.10;0.10;;;5.90;99.90;;;;;;5062802;28;20808;-66
2021/12/02 10:39:29;;;;;;;0.10;0.10;;;6.00;99.90;;;;;;5058175;28;20629;-67
2021/12/02 10:42:04;;;;;;;0.10;0.10;;;6.20;99.90;;;;;;5053623;28;20618;-66
2021/12/02 10:44:41;;;;;;;0.10;0.10;;;6.30;99.90;;;;;;5060454;28;20625;-63
2021/12/02 10:47:17;;;;;;;0.10;0.10;;;6.40;99.90;;;;;;5057967;28;20664;-68
2021/12/02 10:49:48;;;;;;;0.10;0.10;;;6.50;99.90;;;;;;5055411;28;20713;-68
2021/12/02 10:52:17;;;;;;;0.10;0.10;;;6.60;99.90;;;;;;5054428;28;20707;-64
2021/12/02 10:54:46;;;;;;;0.10;0.10;;;6.70;99.90;;;;;;5054574;28;20637;-66
2021/12/02 10:57:20;;;;;;;0.10;0.10;;;6.70;99.90;;;;;;5046503;28;20711;-68
2021/12/02 10:59:50;;;;;;;0.10;0.10;;;6.80;99.90;;;;;;5050154;28;20644;-66
2021/12/02 11:02:25;;;;;;;0.10;0.10;;;6.90;99.90;;;;;;5052646;28;20609;-67
2021/12/02 11:04:56;;;;;;;0.10;0.10;;;6.90;99.90;;;;;;5052487;28;20629;-67
2021/12/02 11:07:28;;;;;;;0.10;0.10;;;6.80;99.90;;;;;;5047840;28;20653;-67
2021/12/02 11:09:57;;;;;;;0.10;0.10;;;6.70;99.90;;;;;;5052467;28;20737;-66
2021/12/02 11:12:26;;;;;;;0.10;0.10;;;6.60;99.90;;;;;;5052637;28;20718;-66
2021/12/02 11:14:57;;;;;;;0.10;0.10;;;6.50;99.90;;;;;;5052162;28;20676;-66
2021/12/02 11:17:30;;;;;;;0.10;0.10;;;6.40;99.90;;;;;;5049610;28;20689;-67
2021/12/02 11:19:58;;;;;;;0.10;0.10;;;6.30;99.90;;;;;;5053618;28;20629;-68
2021/12/02 11:22:28;;;;;;;0.10;0.10;;;6.20;99.90;;;;;;5051516;28;20613;-65
2021/12/02 11:24:57;;;;;;;0.10;0.10;;;6.10;99.90;;;;;;5052277;28;20610;-67
2021/12/02 11:27:27;;;;;;;0.10;0.10;;;6.10;99.90;;;;;;5049136;28;20739;-66
2021/12/02 11:30:02;;;;;;;0.10;0.10;;;6.10;99.90;;;;;;5052886;28;20656;-65
2021/12/02 11:32:34;;;;;;;0.10;0.10;;;6.10;99.90;;;;;;5052686;28;20661;-67
2021/12/02 11:35:06;;;;;;;0.10;0.10;;;6.10;99.90;;;;;;5053608;28;20619;-67
2021/12/02 11:37:37;;;;;;;0.10;0.10;;;6.10;99.90;;;;;;5053657;28;20783;-66
2021/12/02 11:40:08;;;;;;;0.10;0.10;;;6.00;99.90;;;;;;5055713;28;20720;-66
2021/12/02 11:42:39;;;;;;;0.10;0.10;;;6.00;99.90;;;;;;5055020;28;20616;-67
2021/12/02 11:45:11;;;;;;;0.10;0.10;;;6.00;99.90;;;;;;5053149;28;20614;-67
2021/12/02 11:47:41;;;;;;;0.00;0.00;;;6.00;99.90;;;;;;5054012;28;20677;-67
2021/12/02 11:50:14;;;;;;;0.10;0.10;;;6.00;99.90;;;;;;5055851;28;20629;-65
2021/12/02 11:52:42;;;;;;;0.10;0.10;;;6.00;99.90;;;;;;5054444;28;20761;-66
2021/12/02 11:55:13;;;;;;;0.10;0.10;;;6.10;99.90;;;;;;5052607;28;20609;-66
2021/12/02 11:57:41;;;;;;;0.10;0.10;;;6.10;99.90;;;;;;5050366;28;20653;-67
2021/12/02 12:00:12;;;;;;;0.10;0.10;;;6.20;99.90;;;;;;5052486;28;20614;-68
2021/12/02 12:02:49;;;;;;;0.10;0.10;;;6.20;99.90;;;;;;5051485;28;20643;-67
2021/12/02 12:05:24;;;;;;;0.13;0.13;;;6.20;99.90;;;;;;5051068;28;20630;-67
2021/12/02 12:07:54;;;;;;;0.10;0.10;;;6.10;99.90;;;;;;5051424;28;20718;-65
2021/12/02 12:10:32;;;;;;;0.10;0.10;;;6.10;99.90;;;;;;5048543;28;20621;-66
2021/12/02 12:13:20;;;;;;;0.13;0.13;;;5.90;99.90;;;;;;5048473;28;20662;-67
2021/12/02 12:15:49;;;;;;;0.10;0.10;;;5.80;99.90;;;;;;5047870;28;20618;-66
2021/12/02 12:18:39;;;;;;;0.10;0.10;;;5.70;99.90;;;;;;5050887;28;20657;-67
2021/12/02 12:21:09;;;;;;;0.10;0.10;;;5.60;99.90;;;;;;5050112;28;20684;-67
2021/12/02 12:23:56;;;;;;;0.10;0.10;;;5.60;99.90;;;;;;5049405;28;21242;-68
2021/12/02 12:26:30;;;;;;;0.10;0.10;;;5.60;99.90;;;;;;5044226;28;20664;-66
2021/12/02 12:29:31;;;;;;;0.10;0.10;;;5.60;99.90;;;;;;5050282;28;20979;-67
2021/12/02 12:32:33;;;;;;;0.10;0.10;;;5.60;99.90;;;;;;5050125;28;20688;-67
2021/12/02 12:35:07;;;;;;;0.00;0.00;;;5.60;99.90;;;;;;5052618;28;21155;-67
2021/12/02 12:37:53;;;;;;;0.10;0.10;;;5.70;99.90;;;;;;5051299;28;20645;-67
2021/12/02 12:40:26;;;;;;;0.10;0.10;;;5.70;99.90;;;;;;5052524;28;20618;-68
2021/12/02 12:43:21;;;;;;;0.10;0.10;;;5.70;99.90;;;;;;5050614;28;20629;-67
2021/12/02 12:45:49;;;;;;;0.10;0.10;;;5.70;99.90;;;;;;5065146;28;20629;-67
2021/12/02 12:48:30;;;;;;;0.10;0.10;;;5.80;99.90;;;;;;5049808;28;20712;-67
2021/12/02 12:51:16;;;;;;;0.10;0.10;;;5.70;99.90;;;;;;5045984;28;20619;-69
2021/12/02 12:53:48;;;;;;;0.10;0.10;;;5.70;99.90;;;;;;5048877;28;20634;-67
2021/12/02 12:56:17;;;;;;;0.10;0.10;;;5.70;99.90;;;;;;5051835;28;20713;-66
2021/12/02 12:59:14;;;;;;;0.10;0.10;;;5.60;99.90;;;;;;5049459;28;20619;-68
2021/12/02 13:01:53;;;;;;;0.10;0.10;;;5.60;99.90;;;;;;5047122;28;20610;-67
2021/12/02 13:04:23;;;;;;;0.10;0.10;;;5.60;99.90;;;;;;5045390;28;20605;-67
2021/12/02 13:07:06;;;;;;;0.10;0.10;;;5.60;99.90;;;;;;5047830;28;20665;-68
2021/12/02 13:09:41;;;;;;;0.10;0.10;;;5.50;99.90;;;;;;5048220;28;20617;-67
2021/12/02 13:12:11;;;;;;;0.10;0.10;;;5.40;99.90;;;;;;5048060;28;20657;-67
2021/12/02 13:14:38;;;;;;;0.10;0.10;;;5.40;99.90;;;;;;5048162;28;20636;-67
2021/12/02 13:17:45;;;;;;;0.10;0.10;;;5.30;99.90;;;;;;5047905;28;20657;-67
2021/12/02 13:20:43;;;;;;;0.13;0.13;;;5.20;99.90;;;;;;5046073;28;21189;-68
2021/12/02 13:23:39;;;;;;;0.10;0.10;;;5.10;99.90;;;;;;5046491;28;20951;-66
2021/12/02 13:26:20;;;;;;;0.10;0.10;;;5.10;99.90;;;;;;5047492;28;20732;-68
2021/12/02 13:28:48;;;;;;;0.10;0.10;;;5.10;99.90;;;;;;5041948;28;20632;-67
2021/12/02 13:31:17;;;;;;;0.10;0.10;;;5.00;99.90;;;;;;5047327;28;20621;-66
2021/12/02 13:33:48;;;;;;;0.10;0.10;;;5.00;99.90;;;;;;5044869;28;20622;-68